• Join FlightAware (Why Join?)
  • Login
  • US Flag 
11:49PM EDT


 

Airport Tracker/Info


-or-


 

Live Flight TrackerFlight Track Log ✈ EZY6876 ✈ 19-Jul-2013 ✈ LEAL / ALC - EGPF / GLA

Flight Track Log - Related Links

Times and Time Zones

All times are in EDT time to prevent confusion due to time zone crossing. See the EZY6876 flight status page for this flight to view local times or setup timezone preferences in your user account.

Time Position Orientation Groundspeed Altitude Reporting Facility
EDT Latitude Longitude Course Direction KTS MPH feet Rate Location/Type
08:00AM 39.2624 -0.7166 353° North  Level Estimated
08:01AM 39.3604 -0.7327 353° North  Level Estimated
08:02AM 39.4584 -0.7488 353° North  Level Estimated
08:03AM 39.5564 -0.7650 353° North  Level Estimated
08:04AM 39.6544 -0.7812 353° North  Level Estimated
08:05AM 39.7524 -0.7975 353° North  Level Estimated
08:06AM 39.8504 -0.8138 353° North  Level Estimated
08:07AM 39.9484 -0.8301 353° North  Level Estimated
08:08AM 40.0463 -0.8465 353° North  Level Estimated
08:09AM 40.1443 -0.8630 353° North  Level Estimated
08:10AM 40.2463 -0.8802 353° North  Level Estimated
08:11AM 40.3482 -0.8974 353° North  Level Estimated
08:12AM 40.4502 -0.9147 353° North  Level Estimated
08:13AM 40.5521 -0.9320 353° North  Level Estimated
08:14AM 40.6541 -0.9494 353° North  Level Estimated
08:15AM 40.7560 -0.9668 353° North  Level Estimated
08:16AM 40.8579 -0.9843 353° North  Level Estimated
08:17AM 40.9599 -1.0018 353° North  Level Estimated
08:18AM 41.0618 -1.0194 353° North  Level Estimated
08:19AM 41.1637 -1.0371 353° North  Level Estimated
08:20AM 41.2657 -1.0548 353° North  Level Estimated
08:21AM 41.3676 -1.0725 353° North  Level Estimated
08:22AM 41.4695 -1.0904 353° North  Level Estimated
08:23AM 41.5714 -1.1082 353° North  Level Estimated
08:24AM 41.6733 -1.1262 353° North  Level Estimated
08:25AM 41.7752 -1.1441 353° North  Level Estimated
08:26AM 41.8772 -1.1622 352° North  Level Estimated
08:27AM 41.9791 -1.1803 352° North  Level Estimated
08:28AM 42.0810 -1.1984 352° North  Level Estimated
08:29AM 42.1829 -1.2167 352° North  Level Estimated
08:30AM 42.2848 -1.2349 352° North  Level Estimated
08:31AM 42.3867 -1.2533 352° North  Level Estimated
08:32AM 42.4885 -1.2717 352° North  Level Estimated
08:33AM 42.5904 -1.2901 352° North  Level Estimated
08:34AM 42.6923 -1.3086 352° North  Level Estimated
08:35AM 42.7942 -1.3272 352° North  Level Estimated
08:36AM 42.8961 -1.3458 352° North  Level Estimated
08:37AM 42.9980 -1.3645 352° North  Level Estimated
08:38AM 43.0998 -1.3833 352° North  Level Estimated
08:39AM 43.2017 -1.4021 352° North  Level Estimated
08:40AM 43.3036 -1.4210 352° North  Level Estimated
08:41AM 43.4054 -1.4400 352° North  Level Estimated
08:42AM 43.5073 -1.4590 352° North  Level Estimated
08:43AM 43.6092 -1.4780 352° North  Level Estimated
08:44AM 43.7110 -1.4972 352° North  Level Estimated
08:45AM 43.8129 -1.5164 352° North  Level Estimated
08:46AM 43.9147 -1.5357 352° North  Level Estimated
08:47AM 44.0165 -1.5550 352° North  Level Estimated
08:48AM 44.1184 -1.5744 352° North  Level Estimated
08:49AM 44.2202 -1.5939 352° North  Level Estimated
08:50AM 44.3221 -1.6134 352° North  Level Estimated
08:51AM 44.4239 -1.6330 352° North  Level Estimated
08:52AM 44.5257 -1.6527 352° North  Level Estimated
08:53AM 44.6275 -1.6725 352° North  Level Estimated
08:54AM 44.7294 -1.6923 352° North  Level Estimated
08:55AM 44.8312 -1.7122 352° North  Level Estimated
08:56AM 44.9330 -1.7321 352° North  Level Estimated
08:57AM 45.0348 -1.7522 352° North  Level Estimated
08:58AM 45.1366 -1.7723 352° North  Level Estimated
08:59AM 45.2384 -1.7924 352° North  Level Estimated
09:00AM 45.3402 -1.8127 352° North  Level Estimated
09:01AM 45.4420 -1.8330 352° North  Level Estimated
09:02AM 45.5438 -1.8534 352° North  Level Estimated
09:03AM 45.6456 -1.8738 352° North  Level Estimated
09:04AM 45.7474 -1.8944 352° North  Level Estimated
09:05AM 45.8492 -1.9150 352° North  Level Estimated
09:06AM 45.9509 -1.9357 352° North  Level Estimated
09:07AM 46.0527 -1.9564 352° North  Level Estimated
09:08AM 46.1545 -1.9773 352° North  Level Estimated
09:09AM 46.2562 -1.9982 352° North  Level Estimated
09:10AM 46.3580 -2.0192 352° North  Level Estimated
09:11AM 46.4598 -2.0402 352° North  Level Estimated
09:12AM 46.5615 -2.0614 352° North  Level Estimated
09:13AM 46.6633 -2.0826 352° North  Level Estimated
09:14AM 46.7650 -2.1039 352° North  Level Estimated
09:15AM 46.8668 -2.1253 352° North  Level Estimated
09:16AM 46.9685 -2.1468 352° North  Level Estimated
09:17AM 47.0703 -2.1683 352° North  Level Estimated
09:18AM 47.1720 -2.1900 352° North  Level Estimated
09:19AM 47.2737 -2.2117 352° North  Level Estimated
09:20AM 47.3754 -2.2335 352° North  Level Estimated
09:21AM 47.4771 -2.2554 352° North  Level Estimated
09:22AM 47.5789 -2.2774 352° North  Level Estimated
09:23AM 47.6806 -2.2994 352° North  Level Estimated
09:24AM 47.7823 -2.3216 352° North  Level Estimated
09:25AM 47.8840 -2.3438 352° North  Level Estimated
09:26AM 47.9857 -2.3661 352° North  Level Estimated
09:27AM 48.0874 -2.3885 352° North  Level Estimated
09:28AM 48.1891 -2.4110 352° North  Level Estimated
09:29AM 48.2907 -2.4336 352° North  Level Estimated
09:30AM 48.3924 -2.4563 352° North  Level Estimated
09:31AM 48.4941 -2.4791 352° North  Level Estimated
09:32AM 48.5958 -2.5019 352° North  Level Estimated
09:33AM 48.6974 -2.5249 352° North  Level Estimated
09:34AM 48.7991 -2.5479 352° North  Level Estimated
09:35AM 48.9008 -2.5711 351° North  Level Estimated
09:36AM 49.0024 -2.5943 351° North  Level Estimated
09:37AM 49.1041 -2.6176 351° North  Level Estimated
09:38AM 49.2057 -2.6411 351° North  Level Estimated
09:39AM 49.3074 -2.6646 351° North  Level Estimated
09:40AM 49.4090 -2.6882 351° North  Level Estimated
09:41AM 49.5106 -2.7119 351° North  Level Estimated
09:42AM 49.6122 -2.7357 351° North  Level Estimated
09:43AM 49.7138 -2.7596 351° North  Level Estimated
09:44AM 49.8155 -2.7836 351° North  Level Estimated
09:45AM 49.9171 -2.8077 351° North  Level Estimated
09:46AM 50.0187 -2.8320 351° North  Level Estimated
09:47AM 50.1203 -2.8563 351° North  Level Estimated
09:48AM 50.2219 -2.8807 351° North  Level Estimated
09:49AM 50.3234 -2.9052 351° North  Level Estimated
09:50AM 50.4250 -2.9299 351° North  Level Estimated
09:51AM 50.5266 -2.9546 351° North  Level Estimated
09:52AM 50.6282 -2.9794 351° North  Level Estimated
09:53AM 50.7298 -3.0044 351° North  Level Estimated
09:54AM 50.8313 -3.0294 351° North  Level Estimated
09:55AM 50.9329 -3.0546 351° North  Level Estimated
09:56AM 51.0344 -3.0799 351° North  Level Estimated
09:57AM 51.1360 -3.1053 351° North  Level Estimated
09:58AM 51.2375 -3.1308 351° North  Level Estimated
09:59AM 51.3391 -3.1564 351° North  Level Estimated
10:00AM 51.4406 -3.1821 351° North  Level Estimated
10:01AM 51.5421 -3.2080 351° North  Level Estimated
10:02AM 51.6436 -3.2339 351° North  Level Estimated
10:03AM 51.7451 -3.2600 351° North  Level Estimated
10:04AM 51.8466 -3.2862 351° North  Level Estimated
10:05AM 51.9481 -3.3125 351° North  Level Estimated
10:06AM 52.0496 -3.3389 351° North  Level Estimated
10:07AM 52.1511 -3.3655 351° North  Level Estimated
10:08AM 52.2526 -3.3921 351° North  Level Estimated
10:09AM 52.3541 -3.4189 351° North  Level Estimated
10:10AM 52.4556 -3.4459 351° North  Level Estimated
10:11AM 52.5570 -3.4729 351° North  Level Estimated
10:12AM 52.6585 -3.5001 351° North  Level Estimated
10:13AM 52.7599 -3.5274 351° North  Level Estimated
10:14AM 52.8614 -3.5548 351° North  Level Estimated
10:15AM 52.9628 -3.5823 351° North  Level Estimated
10:16AM 53.0643 -3.6100 351° North  Level Estimated
10:17AM 53.1657 -3.6378 351° North  Level Estimated
10:18AM 53.2671 -3.6658 351° North  Level Estimated
10:19AM 53.3734 -3.6952 351° North  Level Estimated
10:20AM 53.4798 -3.7248 351° North  Level Estimated
10:21AM 53.5861 -3.7545 351° North  Level Estimated
10:22AM 53.6924 -3.7844 351° North  Level Estimated
10:23AM 53.7987 -3.8145 351° North  Level Estimated
10:24AM 53.9050 -3.8446 351° North  Level Estimated
10:25AM 54.0113 -3.8750 350° North  Level Estimated
10:26AM 54.1175 -3.9055 350° North  Level Estimated
10:27AM 54.2238 -3.9361 350° North  Level Estimated
10:28AM 54.3301 -3.9669 350° North  Level Estimated
10:29AM 54.4363 -3.9979 350° North  Level Estimated
10:30AM 54.5426 -4.0290 350° North  Level Estimated
10:31AM 54.6488 -4.0603 350° North  Level Estimated
10:32AM 54.7551 -4.0918 350° North  Level Estimated
10:33AM 54.8613 -4.1234 350° North  Level Estimated
10:34AM 54.9675 -4.1552 350° North  Level Estimated
10:35AM 55.0737 -4.1872 350° North  Level Estimated
10:36AM 55.1799 -4.2193 350° North  Level Estimated
10:37AM 55.2861 -4.2516 350° North  Level Estimated
10:38AM 55.3923 -4.2841 350° North  Level Estimated
10:39AM 55.4984 -4.3168 350° North  Level Estimated
10:40AM 55.6046 -4.3496 350° North  Level Estimated
10:41AM 55.7108 -4.3826 350° North  Level Estimated
10:42AM 55.8169 -4.4158 350° North  Level Estimated
10:43AM 55.8719 -4.4331 350° North  Level Estimated
10:44AM 55.8719 -4.4331 29° Northeast  Level Estimated
10:45AM 55.8719 -4.4331 29° Northeast  Level Estimated
10:46AM 55.8719 -4.4331 29° Northeast  Level Estimated
10:47AM 55.8719 -4.4331 29° Northeast  Level Estimated
10:48AM 55.8719 -4.4331 29° Northeast  Level Estimated